Time;durP1;ratioP1;P1;durP2;ratioP2;P2;SDS_P1;SDS_P2;PMS_P1;PMS_P2;Temp;Humidity;BMP_temperature;BMP_pressure;BME280_temperature;BME280_humidity;BME280_pressure;Samples;Min_cycle;Max_cycle;Signal;HPM_P1;HPM_P2
2023/04/21 00:00:55;;;;;;;12.25;1.70;;;;;;;9.06;66.45;101417.53;5013341;28;20057;-50
2023/04/21 00:03:22;;;;;;;4.45;1.70;;;;;;;9.05;66.52;101410.34;4997654;28;20084;-46
2023/04/21 00:05:50;;;;;;;9.57;1.90;;;;;;;9.04;66.33;101410.69;5015087;28;20095;-46
2023/04/21 00:08:17;;;;;;;7.55;1.85;;;;;;;9.00;65.99;101418.78;5013248;28;20048;-45
2023/04/21 00:10:45;;;;;;;8.30;3.42;;;;;;;8.99;65.94;101419.94;4998297;28;20046;-46
2023/04/21 00:13:13;;;;;;;5.60;1.52;;;;;;;8.98;65.75;101421.06;5014941;28;20042;-50
2023/04/21 00:15:40;;;;;;;8.93;3.10;;;;;;;8.97;65.46;101427.75;5014732;28;20046;-49
2023/04/21 00:18:08;;;;;;;7.97;2.20;;;;;;;8.96;65.35;101428.03;4994704;28;20488;-47
2023/04/21 00:20:35;;;;;;;6.10;1.60;;;;;;;8.95;65.15;101424.44;5011496;28;20030;-47
2023/04/21 00:23:02;;;;;;;1.60;1.05;;;;;;;8.94;64.84;101431.13;5012029;28;20058;-46
2023/04/21 00:25:29;;;;;;;6.93;1.77;;;;;;;8.93;64.72;101418.44;5011682;28;20049;-46
2023/04/21 00:27:56;;;;;;;10.15;1.63;;;;;;;8.93;64.59;101406.56;5003208;28;21922;-46
2023/04/21 00:30:22;;;;;;;5.97;1.27;;;;;;;8.94;64.38;101417.31;5011543;28;20400;-50
2023/04/21 00:32:49;;;;;;;5.38;1.52;;;;;;;8.95;64.36;101416.16;5011984;28;20038;-50
2023/04/21 00:35:17;;;;;;;7.88;2.75;;;;;;;8.95;64.31;101416.16;5011870;28;20064;-47
2023/04/21 00:37:44;;;;;;;6.38;1.63;;;;;;;8.96;64.44;101422.50;5011482;28;20045;-46
2023/04/21 00:40:12;;;;;;;4.53;1.63;;;;;;;8.92;64.31;101422.31;5009253;28;20108;-47
2023/04/21 00:42:39;;;;;;;8.30;1.65;;;;;;;8.91;64.35;101412.44;5008398;28;20121;-52
2023/04/21 00:45:06;;;;;;;5.00;2.13;;;;;;;8.90;64.47;101408.03;5002864;28;20054;-54
2023/04/21 00:47:33;;;;;;;9.38;2.65;;;;;;;8.90;64.49;101399.75;5000306;28;20116;-48
2023/04/21 00:50:01;;;;;;;4.80;1.88;;;;;;;8.87;64.49;101403.13;4991378;28;20068;-46
2023/04/21 00:52:28;;;;;;;5.63;1.63;;;;;;;8.86;64.37;101415.34;5010665;28;20082;-48
2023/04/21 00:54:55;;;;;;;6.47;1.50;;;;;;;8.86;64.43;101417.28;5009560;28;20192;-46
2023/04/21 00:57:22;;;;;;;14.10;1.70;;;;;;;8.85;64.21;101416.44;5007417;28;20054;-49
2023/04/21 00:59:50;;;;;;;8.90;2.55;;;;;;;8.84;64.35;101414.03;5008361;28;20185;-47
2023/04/21 01:02:18;;;;;;;4.65;1.60;;;;;;;8.83;64.04;101385.59;5013044;28;20050;-48
2023/04/21 01:04:45;;;;;;;6.43;2.30;;;;;;;8.83;64.13;101410.44;5005871;28;20049;-47
2023/04/21 01:07:11;;;;;;;7.70;2.40;;;;;;;8.83;64.10;101399.41;5009774;28;20049;-52
2023/04/21 01:09:38;;;;;;;15.70;3.08;;;;;;;8.82;64.18;101402.47;5010042;28;20042;-46
2023/04/21 01:12:07;;;;;;;8.60;1.95;;;;;;;8.80;64.23;101380.69;5009877;28;20061;-51
2023/04/21 01:14:38;;;;;;;8.25;1.80;;;;;;;8.80;64.78;101385.41;5007039;28;20042;-48
2023/04/21 01:17:06;;;;;;;13.95;3.67;;;;;;;8.78;64.77;101384.91;5005857;28;20050;-45
2023/04/21 01:19:39;;;;;;;11.90;2.85;;;;;;;8.76;65.41;101378.91;5007097;28;20038;-46
2023/04/21 01:22:14;;;;;;;;;;;;;;;8.73;65.87;101374.81;5010223;28;20053;-44
2023/04/21 01:24:43;;;;;;;10.45;4.22;;;;;;;8.71;65.67;101360.50;5009189;28;19979;-48
2023/04/21 01:27:12;;;;;;;6.03;2.00;;;;;;;8.70;66.03;101369.94;5005981;28;20058;-45
2023/04/21 01:29:42;;;;;;;11.38;3.60;;;;;;;8.67;66.36;101361.47;5008295;28;20064;-50
2023/04/21 01:32:12;;;;;;;12.45;3.33;;;;;;;8.66;66.36;101363.41;5007677;28;20373;-45
2023/04/21 01:34:40;;;;;;;12.07;4.38;;;;;;;8.65;66.78;101345.25;5006758;28;20087;-45
2023/04/21 01:37:08;;;;;;;8.75;2.72;;;;;;;8.63;66.70;101339.19;5006993;28;20403;-46
2023/04/21 01:39:42;;;;;;;8.15;2.33;;;;;;;8.58;67.05;101350.38;5007092;28;20046;-47
2023/04/21 01:42:10;;;;;;;7.20;3.90;;;;;;;8.57;67.12;101332.22;5007460;28;20069;-47
2023/04/21 01:44:37;;;;;;;9.20;4.90;;;;;;;8.56;67.14;101322.28;5007536;28;20450;-47
2023/04/21 01:47:04;;;;;;;11.23;3.40;;;;;;;8.53;67.37;101314.63;5000813;28;20050;-45
2023/04/21 01:49:31;;;;;;;11.20;3.60;;;;;;;8.51;67.48;101308.63;5005586;28;20046;-47
2023/04/21 01:51:58;;;;;;;14.13;3.58;;;;;;;8.48;67.69;101312.03;5008317;28;20045;-45
2023/04/21 01:54:25;;;;;;;9.60;3.05;;;;;;;8.44;67.95;101316.56;5008490;28;20053;-49
2023/04/21 01:56:51;;;;;;;5.97;2.63;;;;;;;8.41;68.38;101319.94;5008705;28;20140;-46
2023/04/21 01:59:18;;;;;;;7.65;2.72;;;;;;;8.41;68.42;101334.56;5005548;28;20505;-48
2023/04/21 02:01:45;;;;;;;10.40;4.70;;;;;;;8.41;68.46;101342.03;5014107;28;20058;-46
2023/04/21 02:04:12;;;;;;;15.65;4.18;;;;;;;8.40;68.73;101332.09;5028391;28;20148;-45
2023/04/21 02:06:39;;;;;;;9.30;3.05;;;;;;;8.38;69.05;101349.00;5020299;28;20107;-47
2023/04/21 02:09:06;;;;;;;15.20;3.72;;;;;;;8.36;69.11;101339.41;5028272;28;20084;-45
2023/04/21 02:11:32;;;;;;;11.60;2.95;;;;;;;8.35;69.40;101343.28;5025640;28;20049;-45
2023/04/21 02:13:59;;;;;;;10.38;3.33;;;;;;;8.34;70.11;101333.38;5025616;28;20046;-45
2023/04/21 02:16:26;;;;;;;19.92;4.20;;;;;;;8.32;70.35;101319.06;5024593;28;20046;-45
2023/04/21 02:19:02;;;;;;;11.77;3.95;;;;;;;8.30;70.48;101302.03;5025956;28;20045;-50
2023/04/21 02:21:29;;;;;;;8.07;3.25;;;;;;;8.29;70.98;101303.16;5025528;28;20049;-45
2023/04/21 02:23:55;;;;;;;12.05;4.28;;;;;;;8.26;71.10;101293.53;5027688;28;20392;-50
2023/04/21 02:26:22;;;;;;;9.85;2.97;;;;;;;8.24;71.45;101300.50;5028960;28;20144;-49
2023/04/21 02:28:50;;;;;;;8.05;3.33;;;;;;;8.22;71.35;101287.03;5025444;28;20045;-46
2023/04/21 02:31:17;;;;;;;11.73;3.60;;;;;;;8.21;71.76;101279.06;5028845;28;20051;-45
2023/04/21 02:33:44;;;;;;;12.25;3.90;;;;;;;8.20;71.81;101286.53;5026529;28;20052;-46
2023/04/21 02:36:11;;;;;;;6.80;3.17;;;;;;;8.17;71.84;101284.41;5027106;28;20050;-45
2023/04/21 02:38:38;;;;;;;13.07;3.72;;;;;;;8.15;72.21;101289.44;5022439;28;20047;-45
2023/04/21 02:41:05;;;;;;;9.57;3.55;;;;;;;8.15;72.59;101296.91;5027915;28;20042;-45
2023/04/21 02:43:31;;;;;;;7.07;3.03;;;;;;;8.14;72.78;101303.53;5026888;28;20049;-47
2023/04/21 02:45:58;;;;;;;16.40;3.85;;;;;;;8.13;72.74;101304.69;5026222;28;20056;-45
2023/04/21 02:48:25;;;;;;;10.65;4.72;;;;;;;8.13;72.80;101305.47;5026380;28;20049;-52
2023/04/21 02:50:52;;;;;;;13.18;4.47;;;;;;;8.13;72.80;101299.16;5021605;28;20049;-46
2023/04/21 02:53:19;;;;;;;8.70;3.55;;;;;;;8.11;72.94;101306.91;5017199;28;20050;-45
2023/04/21 02:55:47;;;;;;;13.32;3.78;;;;;;;8.11;73.42;101317.94;5027265;28;20124;-45
2023/04/21 02:58:13;;;;;;;13.65;4.90;;;;;;;8.09;73.70;101310.00;5026969;28;20515;-47
2023/04/21 03:00:48;;;;;;;13.45;4.43;;;;;;;8.10;73.79;101308.84;5120154;22;20089;-45
2023/04/21 03:03:15;;;;;;;13.00;4.60;;;;;;;8.11;73.81;101312.44;4985948;28;20054;-47
2023/04/21 03:05:42;;;;;;;10.85;4.05;;;;;;;8.12;73.94;101319.59;4987625;28;20038;-46
2023/04/21 03:08:09;;;;;;;11.05;4.55;;;;;;;8.14;73.95;101311.81;4985968;28;20051;-48
2023/04/21 03:10:36;;;;;;;15.20;4.30;;;;;;;8.17;73.96;101316.69;4980940;28;20050;-46
2023/04/21 03:13:03;;;;;;;13.75;3.92;;;;;;;8.19;74.00;101297.88;4988446;28;20061;-46
2023/04/21 03:15:30;;;;;;;15.75;4.30;;;;;;;8.20;73.84;101310.56;4968937;28;20421;-49
2023/04/21 03:17:57;;;;;;;9.70;3.85;;;;;;;8.19;73.78;101303.41;4988327;28;20129;-50
2023/04/21 03:20:24;;;;;;;10.13;4.30;;;;;;;8.19;73.85;101292.34;4986094;28;20753;-45
2023/04/21 03:22:52;;;;;;;14.93;4.20;;;;;;;8.19;73.82;101292.34;4988589;28;20042;-48
2023/04/21 03:25:19;;;;;;;11.00;3.72;;;;;;;8.16;74.03;101295.75;4985748;28;20133;-45
2023/04/21 03:27:46;;;;;;;10.55;4.40;;;;;;;8.15;73.84;101308.75;4985820;28;20057;-45
2023/04/21 03:30:13;;;;;;;10.73;3.72;;;;;;;8.13;74.03;101304.69;4987468;28;20042;-45
2023/04/21 03:32:39;;;;;;;9.10;3.88;;;;;;;8.13;74.12;101291.69;4988431;28;20132;-47
2023/04/21 03:35:06;;;;;;;14.93;4.95;;;;;;;8.16;73.95;101290.22;4988378;28;20042;-49
2023/04/21 03:37:33;;;;;;;8.10;3.60;;;;;;;8.17;73.73;101289.94;4986396;28;20039;-45
2023/04/21 03:40:00;;;;;;;12.90;5.55;;;;;;;8.19;73.78;101284.09;4983325;28;20119;-49
2023/04/21 03:42:28;;;;;;;12.13;4.07;;;;;;;8.21;73.83;101279.06;4987805;28;20077;-49
2023/04/21 03:44:55;;;;;;;14.45;3.63;;;;;;;8.22;74.04;101275.19;4992568;28;20057;-45
2023/04/21 03:47:21;;;;;;;8.73;3.60;;;;;;;8.24;74.02;101273.72;4987841;28;20166;-45
2023/04/21 03:49:48;;;;;;;8.88;3.33;;;;;;;8.28;73.88;101265.69;4982141;28;20475;-46
2023/04/21 03:52:15;;;;;;;6.80;3.42;;;;;;;8.32;74.14;101274.94;4995197;28;20070;-47
2023/04/21 03:54:41;;;;;;;10.32;2.92;;;;;;;8.34;74.54;101276.25;4993546;28;20046;-45
2023/04/21 03:57:08;;;;;;;8.15;3.25;;;;;;;8.38;74.59;101270.91;4991626;28;20141;-45
2023/04/21 03:59:35;;;;;;;17.23;3.53;;;;;;;8.39;74.77;101265.06;4992240;28;20042;-45
2023/04/21 04:02:02;;;;;;;13.57;4.55;;;;;;;8.40;74.47;101265.88;4999755;28;20081;-45
2023/04/21 04:04:29;;;;;;;9.77;3.38;;;;;;;8.42;74.93;101260.84;4992719;28;20054;-48
2023/04/21 04:06:56;;;;;;;11.52;3.50;;;;;;;8.42;74.89;101263.63;4990069;28;20038;-45
2023/04/21 04:09:23;;;;;;;19.65;4.93;;;;;;;8.41;75.16;101234.41;4991204;28;20089;-46
2023/04/21 04:11:49;;;;;;;19.55;3.10;;;;;;;8.39;74.72;101226.44;4992493;28;20038;-45
2023/04/21 04:14:16;;;;;;;7.93;3.10;;;;;;;8.40;75.25;101244.63;4992194;28;20519;-46
2023/04/21 04:16:43;;;;;;;10.40;3.50;;;;;;;8.42;75.46;101238.78;4991321;28;20054;-48
2023/04/21 04:19:10;;;;;;;11.75;3.30;;;;;;;8.40;75.64;101233.59;4990608;28;20050;-45
2023/04/21 04:21:37;;;;;;;11.75;3.75;;;;;;;8.40;75.69;101238.28;4992025;28;20116;-45
2023/04/21 04:24:04;;;;;;;11.40;3.65;;;;;;;8.39;75.48;101231.97;4989936;28;20399;-47
2023/04/21 04:26:34;;;;;;;8.73;3.38;;;;;;;8.41;75.63;101226.13;4990498;28;20278;-46
2023/04/21 04:29:01;;;;;;;7.75;3.38;;;;;;;8.41;75.69;101234.41;4988040;28;20046;-45
2023/04/21 04:31:29;;;;;;;6.00;3.67;;;;;;;8.43;75.53;101237.66;4989785;28;20065;-45
2023/04/21 04:33:56;;;;;;;9.57;4.00;;;;;;;8.43;75.60;101232.16;4990832;28;20054;-47
2023/04/21 04:36:23;;;;;;;12.98;4.88;;;;;;;8.44;75.63;101220.00;4991115;28;20034;-45
2023/04/21 04:38:50;;;;;;;14.45;3.70;;;;;;;8.44;75.73;101228.25;4989265;28;20054;-49
2023/04/21 04:41:18;;;;;;;11.02;3.50;;;;;;;8.45;75.82;101235.38;4990220;28;20246;-46
2023/04/21 04:43:45;;;;;;;8.00;3.75;;;;;;;8.45;75.58;101232.63;4989332;28;20044;-46
2023/04/21 04:46:12;;;;;;;11.93;4.40;;;;;;;8.45;75.72;101225.19;4986986;28;20042;-46
2023/04/21 04:48:39;;;;;;;10.98;5.05;;;;;;;8.46;75.74;101237.84;4990191;28;20121;-45
2023/04/21 04:51:06;;;;;;;13.38;4.70;;;;;;;8.47;75.84;101222.13;4990448;28;20085;-46
2023/04/21 04:53:33;;;;;;;8.82;3.60;;;;;;;8.47;75.90;101220.16;4979337;28;20074;-47
2023/04/21 04:55:59;;;;;;;18.65;5.32;;;;;;;8.48;76.06;101218.19;4990999;28;20506;-46
2023/04/21 04:58:26;;;;;;;11.07;3.83;;;;;;;8.49;76.33;101208.81;4988223;28;20444;-46
2023/04/21 05:00:53;;;;;;;16.45;3.85;;;;;;;8.49;76.45;101208.81;4990053;28;20074;-46
2023/04/21 05:03:19;;;;;;;13.05;4.03;;;;;;;8.47;76.83;101205.56;4989781;28;20176;-45
2023/04/21 05:05:46;;;;;;;14.52;3.88;;;;;;;8.44;76.82;101197.91;4990334;28;20137;-46
2023/04/21 05:08:13;;;;;;;17.05;4.07;;;;;;;8.42;76.97;101191.88;4989732;28;20046;-45
2023/04/21 05:10:43;;;;;;;11.98;4.18;;;;;;;8.38;77.25;101202.75;4972846;28;20051;-46
2023/04/21 05:13:10;;;;;;;15.35;4.40;;;;;;;8.34;77.34;101195.44;4989425;28;20170;-49
2023/04/21 05:15:36;;;;;;;9.75;3.65;;;;;;;8.33;77.46;101193.81;4989628;28;20054;-48
2023/04/21 05:18:03;;;;;;;8.57;4.15;;;;;;;8.31;77.43;101198.84;4988589;28;20034;-50
2023/04/21 05:20:30;;;;;;;11.75;3.65;;;;;;;8.28;77.48;101185.69;4987898;28;20041;-45
2023/04/21 05:22:57;;;;;;;12.93;4.63;;;;;;;8.25;77.95;101175.25;4989182;28;20214;-45
2023/04/21 05:25:23;;;;;;;15.15;4.20;;;;;;;8.21;77.91;101186.09;4990981;28;20062;-45
2023/04/21 05:27:55;;;;;;;11.88;4.63;;;;;;;8.16;78.27;101183.50;4988038;28;20403;-45
2023/04/21 05:30:22;;;;;;;13.57;4.10;;;;;;;8.14;78.54;101179.44;4987656;28;20058;-48
2023/04/21 05:32:49;;;;;;;12.98;4.50;;;;;;;8.11;78.96;101177.28;4989787;28;20412;-45
2023/04/21 05:35:16;;;;;;;14.50;3.85;;;;;;;8.09;78.96;101182.31;4987607;28;20062;-45
2023/04/21 05:37:42;;;;;;;14.23;4.07;;;;;;;8.08;78.83;101180.69;4989396;28;20578;-45
2023/04/21 05:40:09;;;;;;;18.60;4.00;;;;;;;8.04;79.36;101183.28;4988838;28;20054;-45
2023/04/21 05:42:37;;;;;;;15.32;4.45;;;;;;;8.05;79.44;101181.34;4992667;28;20050;-52
2023/04/21 05:45:04;;;;;;;11.18;4.55;;;;;;;8.04;79.72;101185.22;4991797;28;20042;-45
2023/04/21 05:47:31;;;;;;;14.48;4.68;;;;;;;8.06;79.39;101183.78;4997680;28;20054;-46
2023/04/21 05:49:58;;;;;;;19.95;4.32;;;;;;;8.09;79.96;101176.81;4990095;28;20042;-46
2023/04/21 05:52:27;;;;;;;15.40;4.90;;;;;;;8.13;79.77;101175.06;4990256;28;20153;-50
2023/04/21 05:54:54;;;;;;;16.58;4.80;;;;;;;8.13;79.92;101164.81;4990647;28;20070;-50
2023/04/21 05:57:21;;;;;;;11.05;4.10;;;;;;;8.12;79.74;101160.44;4988834;28;20516;-45
2023/04/21 05:59:48;;;;;;;12.75;4.25;;;;;;;8.13;80.00;101169.53;4990113;28;20050;-45
2023/04/21 06:02:16;;;;;;;14.32;5.60;;;;;;;8.12;79.96;101148.59;4990013;28;20085;-48
2023/04/21 06:04:43;;;;;;;10.07;4.57;;;;;;;8.12;80.59;101168.72;4977766;28;20041;-45
2023/04/21 06:07:12;;;;;;;15.90;4.55;;;;;;;8.13;80.78;101170.34;4990528;28;20087;-47
2023/04/21 06:09:40;;;;;;;16.67;4.53;;;;;;;8.14;80.66;101160.13;4989453;28;20397;-52
2023/04/21 06:12:06;;;;;;;11.05;4.10;;;;;;;8.16;81.23;101161.44;4989766;28;20088;-46
2023/04/21 06:14:33;;;;;;;19.90;4.88;;;;;;;8.20;81.64;101167.13;4989279;28;20042;-46
2023/04/21 06:17:00;;;;;;;13.80;4.75;;;;;;;8.25;81.19;101164.22;4989132;28;20065;-45
2023/04/21 06:19:29;;;;;;;21.58;5.15;;;;;;;8.29;81.52;101165.22;4988934;28;20472;-45
2023/04/21 06:21:56;;;;;;;16.25;4.75;;;;;;;8.34;81.37;101165.09;4989877;28;20058;-46
2023/04/21 06:24:26;;;;;;;25.75;4.28;;;;;;;8.38;81.32;101163.31;4990053;28;20053;-47
2023/04/21 06:26:52;;;;;;;20.05;5.65;;;;;;;8.40;81.67;101145.31;4988244;28;20529;-45
2023/04/21 06:29:19;;;;;;;9.52;3.85;;;;;;;8.45;81.44;101147.09;4989779;28;20077;-46
2023/04/21 06:31:46;;;;;;;17.05;4.50;;;;;;;8.47;81.22;101150.38;4989525;28;20430;-46
2023/04/21 06:34:13;;;;;;;17.92;5.18;;;;;;;8.52;81.27;101136.41;4993900;28;20045;-47
2023/04/21 06:36:40;;;;;;;15.18;5.45;;;;;;;8.58;81.17;101130.41;4992242;28;20563;-46
2023/04/21 06:39:06;;;;;;;8.02;4.70;;;;;;;8.63;81.32;101132.19;4989106;28;20057;-49
2023/04/21 06:41:33;;;;;;;13.93;4.32;;;;;;;8.72;81.18;101130.28;4985146;28;20041;-45
2023/04/21 06:44:00;;;;;;;14.98;4.30;;;;;;;8.82;80.86;101129.94;4989526;28;20038;-47
2023/04/21 06:46:26;;;;;;;11.18;4.32;;;;;;;8.89;80.92;101130.28;4989506;28;20042;-45
2023/04/21 06:48:53;;;;;;;13.30;4.32;;;;;;;8.92;80.82;101117.78;4988968;28;20558;-46
2023/04/21 06:51:20;;;;;;;13.02;5.07;;;;;;;8.96;80.62;101107.69;4971918;28;20050;-47
2023/04/21 06:53:46;;;;;;;13.82;4.38;;;;;;;8.94;80.89;101116.31;4972036;28;20050;-46
2023/04/21 06:56:13;;;;;;;16.27;4.95;;;;;;;8.92;80.98;101109.50;4987834;28;20088;-45
2023/04/21 06:58:40;;;;;;;27.38;6.78;;;;;;;8.91;81.08;101103.16;4971675;28;20137;-45
2023/04/21 07:01:06;;;;;;;12.23;4.28;;;;;;;8.95;81.28;101106.88;4988928;28;20050;-49
2023/04/21 07:03:33;;;;;;;32.42;6.38;;;;;;;9.02;81.09;101106.41;4989576;28;20054;-47
2023/04/21 07:06:00;;;;;;;14.45;4.45;;;;;;;9.06;81.08;101113.69;4989567;28;20042;-46
2023/04/21 07:08:27;;;;;;;22.63;7.53;;;;;;;9.06;80.94;101119.22;4988659;28;20057;-47
2023/04/21 07:10:53;;;;;;;11.63;4.35;;;;;;;9.08;81.17;101105.91;4984207;28;20058;-51
2023/04/21 07:13:20;;;;;;;10.05;3.97;;;;;;;9.09;81.15;101107.53;4986589;28;20046;-48
2023/04/21 07:15:47;;;;;;;18.88;6.00;;;;;;;9.12;81.17;101106.88;4984490;28;20188;-48
2023/04/21 07:18:13;;;;;;;20.92;5.13;;;;;;;9.16;81.16;101110.59;4968167;28;20664;-46
2023/04/21 07:20:40;;;;;;;10.38;4.38;;;;;;;9.21;81.35;101103.31;4969182;28;20092;-45
2023/04/21 07:23:07;;;;;;;19.98;6.97;;;;;;;9.27;81.28;101107.50;4986582;28;20073;-48
2023/04/21 07:25:34;;;;;;;16.05;4.70;;;;;;;9.30;81.31;101107.66;4989462;28;20045;-48
2023/04/21 07:28:02;;;;;;;13.85;5.88;;;;;;;9.34;81.33;101107.81;4988743;28;20050;-48
2023/04/21 07:30:29;;;;;;;21.20;5.28;;;;;;;9.42;81.22;101090.41;4991218;28;20867;-46
2023/04/21 07:32:56;;;;;;;22.98;5.07;;;;;;;9.44;81.37;101102.75;4992145;28;20504;-48
2023/04/21 07:35:24;;;;;;;13.75;5.45;;;;;;;9.44;81.19;101093.66;4989755;28;20042;-46
2023/04/21 07:37:51;;;;;;;19.58;5.38;;;;;;;9.44;81.38;101082.59;4992171;28;20050;-49
2023/04/21 07:40:18;;;;;;;14.85;5.13;;;;;;;9.44;81.48;101079.84;4990994;28;20046;-47
2023/04/21 07:42:45;;;;;;;16.60;5.40;;;;;;;9.49;81.57;101074.94;4991150;28;20046;-46
2023/04/21 07:45:11;;;;;;;17.52;4.68;;;;;;;9.53;81.44;101083.41;4990862;28;20168;-46
2023/04/21 07:47:38;;;;;;;16.45;4.68;;;;;;;9.54;81.40;101079.47;4990562;28;20046;-50
2023/04/21 07:50:06;;;;;;;16.08;5.70;;;;;;;9.55;81.51;101070.88;4990742;28;20054;-47
2023/04/21 07:52:32;;;;;;;13.98;5.95;;;;;;;9.58;81.52;101064.66;4991782;28;20158;-46
2023/04/21 07:55:00;;;;;;;11.55;4.47;;;;;;;9.65;81.59;101050.34;4992946;28;20042;-46
2023/04/21 07:57:26;;;;;;;19.20;5.60;;;;;;;9.78;81.78;101041.00;4989539;28;20052;-49
2023/04/21 07:59:53;;;;;;;19.92;5.88;;;;;;;10.01;81.56;101011.09;4991791;28;20050;-48
2023/04/21 08:02:20;;;;;;;23.05;6.00;;;;;;;10.11;81.63;101005.19;4990749;28;20405;-48
2023/04/21 08:04:48;;;;;;;19.67;5.97;;;;;;;10.18;82.16;101008.25;4991312;28;20046;-47
2023/04/21 08:07:15;;;;;;;21.25;6.63;;;;;;;10.28;82.75;101039.13;4992168;28;20081;-46
2023/04/21 08:09:42;;;;;;;20.27;6.32;;;;;;;10.38;83.22;101085.78;4983086;28;20050;-52
2023/04/21 08:12:08;;;;;;;16.42;5.05;;;;;;;10.55;83.34;101092.34;4989744;28;20073;-46
2023/04/21 08:14:35;;;;;;;12.80;5.47;;;;;;;10.66;83.31;101085.25;4990431;28;20680;-46
2023/04/21 08:17:02;;;;;;;12.63;4.35;;;;;;;10.86;83.51;101076.13;4985535;28;20054;-49
2023/04/21 08:19:28;;;;;;;11.27;5.13;;;;;;;11.04;83.48;101072.03;4990757;28;20050;-48
2023/04/21 08:21:56;;;;;;;19.45;4.95;;;;;;;11.20;83.66;101075.00;4989151;28;20050;-52
2023/04/21 08:24:23;;;;;;;22.17;5.20;;;;;;;11.37;84.18;101067.31;4984084;28;20050;-48
2023/04/21 08:26:50;;;;;;;22.35;5.07;;;;;;;11.49;83.82;101050.69;4982948;28;20647;-56
2023/04/21 08:29:16;;;;;;;19.08;4.68;;;;;;;11.68;84.35;101052.09;4988168;28;20054;-51
2023/04/21 08:31:43;;;;;;;15.75;4.93;;;;;;;11.90;84.37;101048.94;4988951;28;20395;-51
2023/04/21 08:34:10;;;;;;;20.92;6.32;;;;;;;12.13;83.72;101042.56;4970935;28;20062;-50
2023/04/21 08:36:36;;;;;;;15.20;5.50;;;;;;;12.67;83.49;101043.03;4986265;28;20049;-52
2023/04/21 08:39:03;;;;;;;17.50;4.80;;;;;;;13.29;82.02;101044.44;4985896;28;20094;-51
2023/04/21 08:41:30;;;;;;;18.20;5.80;;;;;;;13.75;79.96;101040.88;4983379;28;20054;-49
2023/04/21 08:43:57;;;;;;;18.48;5.00;;;;;;;14.42;78.60;101022.19;4992162;28;20455;-50
2023/04/21 08:46:26;;;;;;;20.65;5.72;;;;;;;15.02;76.66;101032.63;5000676;28;20440;-51
2023/04/21 08:48:53;;;;;;;16.38;4.65;;;;;;;15.66;74.99;101029.06;5005215;28;20123;-49
2023/04/21 08:51:22;;;;;;;16.58;4.95;;;;;;;15.89;72.56;101029.06;4987114;28;20088;-49
2023/04/21 08:53:50;;;;;;;19.55;6.25;;;;;;;15.19;70.72;101031.38;4987224;28;21072;-51
2023/04/21 08:56:17;;;;;;;21.50;5.13;;;;;;;14.40;70.81;101011.41;4986114;28;20471;-48
2023/04/21 08:58:44;;;;;;;11.07;5.20;;;;;;;14.09;71.37;100999.50;4977814;28;20050;-47
2023/04/21 09:01:11;;;;;;;13.98;5.10;;;;;;;13.99;70.59;101007.28;4979807;28;20069;-54
2023/04/21 09:03:38;;;;;;;16.77;5.10;;;;;;;13.58;69.76;101012.59;4971424;28;20049;-52
2023/04/21 09:06:07;;;;;;;12.38;4.90;;;;;;;13.10;69.74;101002.59;4955870;28;20060;-50
2023/04/21 09:08:42;;;;;;;13.77;4.95;;;;;;;12.69;70.29;101006.56;4972040;28;20399;-48
2023/04/21 09:11:13;;;;;;;14.63;5.70;;;;;;;12.23;70.40;100994.09;4973495;28;20068;-45
2023/04/21 09:13:42;;;;;;;22.10;5.43;;;;;;;11.98;70.39;101000.84;4974355;28;20428;-48
2023/04/21 09:16:18;;;;;;;14.65;4.53;;;;;;;11.74;71.12;100992.53;4985997;28;20129;-51
2023/04/21 09:18:45;;;;;;;15.27;5.53;;;;;;;11.58;70.83;100993.19;4984549;28;20107;-48
2023/04/21 09:21:14;;;;;;;17.95;6.22;;;;;;;11.47;71.03;100980.13;4984481;28;20066;-52
2023/04/21 09:23:52;;;;;;;18.70;6.82;;;;;;;11.44;71.37;100976.06;4983355;28;20057;-51
2023/04/21 09:26:21;;;;;;;13.57;4.95;;;;;;;11.45;71.37;100974.94;4983121;28;20141;-50
2023/04/21 09:28:50;;;;;;;13.32;5.13;;;;;;;11.42;71.10;100972.84;4979669;28;20046;-47
2023/04/21 09:31:27;;;;;;;19.45;5.03;;;;;;;11.32;71.34;100967.75;4967628;28;20503;-48
2023/04/21 09:33:57;;;;;;;14.02;4.78;;;;;;;11.35;71.68;100969.03;4983830;28;20051;-46
2023/04/21 09:36:28;;;;;;;19.90;5.03;;;;;;;11.49;71.37;100961.19;4983698;28;20137;-51
2023/04/21 09:39:01;;;;;;;18.98;5.70;;;;;;;11.60;71.20;100957.59;4984369;28;20050;-50
2023/04/21 09:41:48;;;;;;;22.55;6.75;;;;;;;11.66;71.27;100949.84;4984513;28;20046;-52
2023/04/21 09:44:16;;;;;;;17.55;4.88;;;;;;;11.72;71.39;100950.47;4984114;28;20136;-48
2023/04/21 09:46:47;;;;;;;18.40;5.40;;;;;;;11.71;71.27;100948.84;4984071;28;20511;-52
2023/04/21 09:49:16;;;;;;;21.42;4.57;;;;;;;11.66;71.44;100944.31;4984915;28;20424;-47
2023/04/21 09:51:45;;;;;;;19.25;5.38;;;;;;;11.70;71.62;100961.09;4984374;28;20034;-51
2023/04/21 09:54:16;;;;;;;17.35;5.65;;;;;;;11.78;71.46;100957.41;4983565;28;20392;-46
2023/04/21 09:57:00;;;;;;;21.40;5.72;;;;;;;11.74;71.38;100953.69;4983628;28;20038;-50
2023/04/21 09:59:43;;;;;;;17.17;4.93;;;;;;;11.65;71.55;100953.00;4982148;28;20104;-47
2023/04/21 10:02:11;;;;;;;13.88;4.43;;;;;;;11.58;71.62;100940.50;4989744;28;20065;-47
2023/04/21 10:04:41;;;;;;;15.50;5.38;;;;;;;11.58;71.85;100954.38;4985130;28;20054;-46
2023/04/21 10:07:09;;;;;;;13.75;5.07;;;;;;;11.61;71.90;100936.22;4984029;28;20051;-52
2023/04/21 10:09:44;;;;;;;16.30;5.20;;;;;;;11.60;71.80;100935.41;4984306;28;20390;-53
2023/04/21 10:12:12;;;;;;;20.80;6.47;;;;;;;11.65;71.84;100936.34;4984336;28;20048;-50
2023/04/21 10:14:39;;;;;;;20.30;5.28;;;;;;;11.71;71.68;100933.00;4983992;28;20078;-50
2023/04/21 10:17:08;;;;;;;27.77;5.88;;;;;;;11.73;71.81;100924.34;4983217;28;20783;-50
2023/04/21 10:19:46;;;;;;;20.90;6.25;;;;;;;11.74;71.86;100925.94;4982667;28;20395;-46
2023/04/21 10:22:13;;;;;;;20.40;5.65;;;;;;;11.79;72.11;100931.25;4980916;28;20054;-53
2023/04/21 10:24:44;;;;;;;17.55;6.63;;;;;;;11.85;71.94;100922.38;4972230;28;20129;-54
2023/04/21 10:27:11;;;;;;;23.20;6.25;;;;;;;11.83;72.05;100915.56;4968357;28;20845;-48
2023/04/21 10:29:38;;;;;;;18.33;5.28;;;;;;;11.76;72.19;100912.53;4968908;28;20105;-48
2023/04/21 10:32:44;;;;;;;14.55;5.55;;;;;;;11.76;72.33;100912.53;4969345;28;20051;-49
2023/04/21 10:35:20;;;;;;;24.00;5.65;;;;;;;11.77;72.06;100912.19;4969935;28;20069;-50
2023/04/21 10:37:48;;;;;;;17.65;6.70;;;;;;;11.85;72.40;100910.44;4980317;28;20540;-50
2023/04/21 10:40:35;;;;;;;28.67;6.28;;;;;;;11.97;72.11;100913.19;4985211;28;20051;-52
2023/04/21 10:43:05;;;;;;;18.83;6.30;;;;;;;12.07;71.78;100904.41;4979340;28;20110;-50
2023/04/21 10:45:31;;;;;;;20.33;6.32;;;;;;;12.03;71.56;100904.28;4984263;28;20185;-51
2023/04/21 10:48:00;;;;;;;20.98;5.45;;;;;;;12.08;71.81;100895.72;4985336;28;20152;-55
2023/04/21 10:50:29;;;;;;;22.65;6.05;;;;;;;12.27;71.80;100885.94;4984054;28;20065;-47
2023/04/21 10:53:08;;;;;;;20.55;6.95;;;;;;;12.58;71.01;100877.69;4982225;28;20069;-48
2023/04/21 10:55:35;;;;;;;36.67;7.60;;;;;;;13.05;70.01;100877.75;4983355;28;20054;-48
2023/04/21 10:58:05;;;;;;;16.00;5.90;;;;;;;13.40;69.41;100875.84;4982379;28;20054;-50
2023/04/21 11:00:32;;;;;;;17.73;5.95;;;;;;;13.69;68.84;100878.13;4982340;28;20148;-49
2023/04/21 11:03:03;;;;;;;15.38;5.18;;;;;;;13.71;68.36;100870.25;4981610;28;20378;-48
2023/04/21 11:05:35;;;;;;;;;;;;;;;13.61;68.44;100856.88;4984571;28;21428;-54
2023/04/21 11:08:11;;;;;;;15.38;6.55;;;;;;;13.58;68.62;100860.38;4977406;28;19930;-51
2023/04/21 11:10:56;;;;;;;19.30;6.50;;;;;;;13.60;68.84;100846.94;4983326;28;20038;-49
2023/04/21 11:13:26;;;;;;;15.20;5.75;;;;;;;13.66;68.63;100859.38;4983631;28;20074;-47
2023/04/21 11:15:58;;;;;;;18.98;5.68;;;;;;;13.69;68.56;100852.28;4982979;28;20034;-54
2023/04/21 11:18:42;;;;;;;21.70;5.65;;;;;;;13.70;68.34;100843.59;4983093;28;20062;-52
2023/04/21 11:21:11;;;;;;;15.13;6.18;;;;;;;13.52;67.95;100847.13;4984090;28;20050;-50
2023/04/21 11:23:46;;;;;;;25.08;6.57;;;;;;;13.48;68.19;100843.44;4982639;28;20038;-47
2023/04/21 11:26:13;;;;;;;14.90;4.35;;;;;;;13.58;68.34;100842.91;4981797;28;20058;-49
2023/04/21 11:28:40;;;;;;;24.58;7.00;;;;;;;13.51;68.11;100829.63;4980209;28;20042;-49